Home > Products > Valid Products > MTR

000
SAUS43 KABR 260759
MTR8D3
METAR K8D3 260756Z AUTO 16005KT 01/M03 A2996 RMK AO1 SLP148
T00111028





000
SAUS43 KABR 260659
MTR8D3
METAR K8D3 260656Z AUTO 17004KT 01/M03 A2998 RMK AO1 SLP156
T00111028





000
SAUS43 KABR 260559
MTR8D3
METAR K8D3 260556Z AUTO 19003KT 02/M03 A3000 RMK AO1 SLP163
T00171028 10089 20017 401830017 58013





000
SAUS43 KABR 260459
MTR8D3
METAR K8D3 260456Z AUTO 19005KT 03/M02 A3002 RMK AO1 SLP169
T00281017





000
SAUS43 KABR 260459
MTR8D3
METAR K8D3 260456Z AUTO 19005KT 03/M02 A3002 RMK AO1 SLP169
T00281017





000
SAUS43 KABR 260359
MTR8D3
METAR K8D3 260356Z AUTO 21003KT 03/M02 A3003 RMK AO1 SLP173
T00281022





000
SAUS43 KABR 260359
MTR8D3
METAR K8D3 260356Z AUTO 21003KT 03/M02 A3003 RMK AO1 SLP173
T00281022





000
SAUS43 KABR 260259
MTR8D3
METAR K8D3 260256Z AUTO 00000KT 02/M02 A3004 RMK AO1 SLP180
T00171022 58006





000
SAUS43 KABR 260159
MTR8D3
METAR K8D3 260156Z AUTO 28003KT 03/M02 A3005 RMK AO1 SLP183
T00331017





000
SAUS43 KABR 260159
MTR8D3
METAR K8D3 260156Z AUTO 28003KT 03/M02 A3005 RMK AO1 SLP183
T00331017





000
SAUS43 KABR 260059
MTR8D3
METAR K8D3 260056Z AUTO 23005KT 07/M02 A3005 RMK AO1 SLP182
T00671017





000
SAUS43 KABR 252359
MTR8D3
METAR K8D3 252356Z AUTO 00000KT 05/M02 A3006 RMK AO1 SLP185
T00501022 10183 20050 58005





000
SAUS43 KABR 252259
MTR8D3
METAR K8D3 252256Z AUTO 01004KT 15/M03 A3007 RMK AO1 SLP181
T01501028





000
SAUS43 KABR 252159
MTR8D3
METAR K8D3 252156Z AUTO 02007KT 17/M03 A3008 RMK AO1 SLP182
T01721028





000
SAUS43 KABR 252059
MTR8D3
METAR K8D3 252056Z AUTO 36013KT 17/M03 A3008 RMK AO1 SLP179
T01721028 56016





000
SAUS43 KABR 251959
MTR8D3
METAR K8D3 251956Z AUTO 35013KT 17/M02 A3009 RMK AO1 SLP184
T01721022





000
SAUS43 KABR 251859
MTR8D3
METAR K8D3 251856Z AUTO 35011G16KT 17/M02 A3011 RMK AO1 SLP188
T01721017





000
SAUS43 KABR 251859
MTR8D3
METAR K8D3 251856Z AUTO 35011G16KT 17/M02 A3011 RMK AO1 SLP188
T01721017





000
SAUS43 KABR 251759
MTR8D3
METAR K8D3 251756Z AUTO 33012G18KT 17/M01 A3013 RMK AO1 SLP195
T01671011 10167 20100 50005





000
SAUS43 KABR 251759
MTR8D3
METAR K8D3 251756Z AUTO 33012G18KT 17/M01 A3013 RMK AO1 SLP195
T01671011 10167 20100 50005





000
SAUS43 KABR 251659
MTR8D3
METAR K8D3 251656Z AUTO 01012G20KT 16/M01 A3013 RMK AO1 SLP198
T01561011





000
SAUS43 KABR 251659
MTR8D3
METAR K8D3 251656Z AUTO 01012G20KT 16/M01 A3013 RMK AO1 SLP198
T01561011





000
SAUS43 KABR 251559
MTR8D3
METAR K8D3 251556Z AUTO 01013KT 14/00 A3013 RMK AO1 SLP197 T01440000





000
SAUS43 KABR 251459
MTR8D3
METAR K8D3 251456Z AUTO 34011KT 13/01 A3011 RMK AO1 SLP194 T01280006
51013





000
SAUS43 KABR 251359
MTR8D3
METAR K8D3 251356Z AUTO 32009KT 11/01 A3011 RMK AO1 SLP193 T01060011





000
SAUS43 KABR 251259
MTR8D3
METAR K8D3 251256Z AUTO 34007KT 11/01 A3009 RMK AO1 SLP186 T01060006





000
SAUS43 KABR 251200
MTR8D3
METAR K8D3 251156Z AUTO 34009KT 11/01 A3007 RMK AO1 SLP179 T01110006
10150 20111 51010





000
SAUS43 KABR 251200
MTR8D3
METAR K8D3 251156Z AUTO 34009KT 11/01 A3007 RMK AO1 SLP179 T01110006
10150 20111 51010





000
SAUS43 KABR 251100
MTR8D3
METAR K8D3 251056Z AUTO 33010KT 12/00 A3006 RMK AO1 SLP171 T01220000





000
SAUS43 KABR 251100
MTR8D3
METAR K8D3 251056Z AUTO 33010KT 12/00 A3006 RMK AO1 SLP171 T01220000





000
SAUS43 KABR 251000
MTR8D3
METAR K8D3 250956Z AUTO 33009KT 12/01 A3005 RMK AO1 SLP166 T01220006





000
SAUS43 KABR 250900
MTR8D3
METAR K8D3 250856Z AUTO 33008KT 13/01 A3004 RMK AO1 SLP161 T01330006
51014





000
SAUS43 KABR 250759
MTR8D3
METAR K8D3 250756Z AUTO 33012KT 14/01 A3004 RMK AO1 SLP159 T01390006





000
SAUS43 KABR 250659
MTR8D3
METAR K8D3 250656Z AUTO 34014KT 15/00 A3002 RMK AO1 SLP153 T01500000





000
SAUS43 KABR 250600
MTR8D3
METAR K8D3 250556Z AUTO 33012KT 15/01 A3000 RMK AO1 SLP146 T01500006
10178 20128 402500033 51017





000
SAUS43 KABR 250459
MTR8D3
METAR K8D3 250456Z AUTO 34010KT 14/02 A2998 RMK AO1 SLP140 T01390017





000
SAUS43 KABR 250359
MTR8D3
METAR K8D3 250356Z AUTO 34009KT 15/02 A2996 RMK AO1 SLP140 T01500022





000
SAUS43 KABR 250359
MTR8D3
METAR K8D3 250356Z AUTO 34009KT 15/02 A2996 RMK AO1 SLP140 T01500022





000
SAUS43 KABR 250259
MTR8D3
METAR K8D3 250256Z AUTO 34008KT 14/03 A2994 RMK AO1 SLP138 T01440028
53025





000
SAUS43 KABR 250159
MTR8D3
METAR K8D3 250156Z AUTO 33011KT 17/04 A2992 RMK AO1 SLP130 T01670039





000
SAUS43 KABR 250059
MTR8D3
METAR K8D3 250056Z AUTO 31006KT 17/04 A2989 RMK AO1 SLP121 T01720044





000
SAUS43 KABR 242359
MTR8D3
METAR K8D3 242356Z AUTO 29007KT 17/06 A2987 RMK AO1 SLP115 T01720056
10250 20172 53014





000
SAUS43 KABR 242300
MTR8D3
METAR K8D3 242256Z AUTO 28007KT 22/05 A2985 RMK AO1 SLP105 T02170050





000
SAUS43 KABR 242159
MTR8D3
METAR K8D3 242156Z AUTO 29012KT 24/04 A2983 RMK AO1 SLP096 T02440039





000
SAUS43 KABR 242059
MTR8D3
METAR K8D3 242056Z AUTO 32010KT 24/04 A2982 RMK AO1 SLP089 T02440039
55004





000
SAUS43 KABR 241959
MTR8D3
METAR K8D3 241956Z AUTO 31012KT 25/03 A2982 RMK AO1 SLP086 T02500033





000
SAUS43 KABR 241859
MTR8D3
METAR K8D3 241856Z AUTO 32010G20KT 24/03 A2983 RMK AO1 SLP091
T02440028





000
SAUS43 KABR 241800
MTR8D3
METAR K8D3 241756Z AUTO 30009KT 23/04 A2984 RMK AO1 SLP093 T02330039
10233 20033 50000





000
SAUS43 KABR 241701
MTR8D3
METAR K8D3 241656Z AUTO 28005KT 23/02 A2984 RMK AO1 SLP099 T02280017





000
SAUS43 KABR 241601
MTR8D3
METAR K8D3 241556Z AUTO 00000KT 17/10 A2983 RMK AO1 SLP101 T01670100





000
SAUS43 KABR 241501
MTR8D3
METAR K8D3 241456Z AUTO 00000KT 10/08 A2983 RMK AO1 SLP105 T01000083
53007





000
SAUS43 KABR 241401
MTR8D3
METAR K8D3 241356Z AUTO 19004KT 07/06 A2983 RMK AO1 SLP104 T00720061





000
SAUS43 KABR 241301
MTR8D3
METAR K8D3 241256Z AUTO 19004KT 04/04 A2982 RMK AO1 SLP102 T00440039





000
SAUS43 KABR 241201
MTR8D3
METAR K8D3 241156Z AUTO 21003KT 04/03 A2981 RMK AO1 SLP101 T00390033
10133 20039 55001





000
SAUS43 KABR 241102
MTR8D3
METAR K8D3 241056Z AUTO 14004KT 05/04 A2981 RMK AO1 SLP094 T00500044





000
SAUS43 KABR 241001
MTR8D3
METAR K8D3 240956Z AUTO 00000KT 06/05 A2981 RMK AO1 SLP092 T00610050





000
SAUS43 KABR 241001
MTR8D3
METAR K8D3 240956Z AUTO 00000KT 06/05 A2981 RMK AO1 SLP092 T00610050





000
SAUS43 KABR 240901
MTR8D3
METAR K8D3 240856Z AUTO 21004KT 11/08 A2982 RMK AO1 SLP089 T01060078
56004





000
SAUS43 KABR 240801
MTR8D3
METAR K8D3 240756Z AUTO VRB04KT 13/09 A2982 RMK AO1 SLP087 T01280089





000
SAUS43 KABR 240701
MTR8D3
METAR K8D3 240656Z AUTO 14005KT 09/07 A2983 RMK AO1 SLP093 T00940067





000
SAUS43 KABR 240601
MTR8D3
METAR K8D3 240556Z AUTO 24011G16KT 12/08 A2983 RMK AO1 SLP093
T01220078 10128 20067 402280067 57013





000
SAUS43 KABR 240502
MTR8D3
METAR K8D3 240456Z AUTO 20005KT 08/06 A2984 RMK AO1 SLP102 T00830056





000
SAUS43 KABR 240502
MTR8D3
METAR K8D3 240456Z AUTO 20005KT 08/06 A2984 RMK AO1 SLP102 T00830056





000
SAUS43 KABR 240401
MTR8D3
METAR K8D3 240356Z AUTO 17005KT 10/06 A2986 RMK AO1 SLP108 T01000061





000
SAUS43 KABR 240401
MTR8D3
METAR K8D3 240356Z AUTO 17005KT 10/06 A2986 RMK AO1 SLP108 T01000061





000
SAUS43 KABR 240301
MTR8D3
METAR K8D3 240256Z AUTO 21006KT 10/06 A2987 RMK AO1 SLP114 T01000056
55004





000
SAUS43 KABR 240301
MTR8D3
METAR K8D3 240256Z AUTO 21006KT 10/06 A2987 RMK AO1 SLP114 T01000056
55004





000
SAUS43 KABR 240201
MTR8D3
METAR K8D3 240156Z AUTO 19007KT 10/05 A2986 RMK AO1 SLP113 T01000050





000
SAUS43 KABR 240201
MTR8D3
METAR K8D3 240156Z AUTO 19007KT 10/05 A2986 RMK AO1 SLP113 T01000050





000
SAUS43 KABR 240101
MTR8D3
METAR K8D3 240056Z AUTO 21008KT 12/04 A2988 RMK AO1 SLP120 T01170044





000
SAUS43 KABR 232359
MTR8D3
METAR K8D3 232356Z AUTO 22005KT 13/05 A2988 RMK AO1 SLP120 T01280050
10228 20128 53001





000
SAUS43 KABR 232259
MTR8D3
METAR K8D3 232256Z AUTO 22005KT 17/03 A2987 RMK AO1 SLP111 T01720028





000
SAUS43 KABR 232159
MTR8D3
METAR K8D3 232156Z AUTO 25010KT 21/01 A2987 RMK AO1 SLP109 T02110011





000
SAUS43 KABR 232059
MTR8D3
METAR K8D3 232056Z AUTO 24010KT 22/03 A2988 RMK AO1 SLP109 T02220028
56016





000
SAUS43 KABR 231959
MTR8D3
METAR K8D3 231956Z AUTO 25012KT 22/04 A2988 RMK AO1 SLP111 T02220044





000
SAUS43 KABR 231901
MTR8D3
METAR K8D3 231856Z AUTO 24010KT 22/02 A2990 RMK AO1 SLP116 T02220022





000
SAUS43 KABR 231901
MTR8D3
METAR K8D3 231856Z AUTO 24010KT 22/02 A2990 RMK AO1 SLP116 T02220022





000
SAUS43 KABR 231759
MTR8D3
METAR K8D3 231756Z AUTO 26011KT 21/02 A2992 RMK AO1 SLP125 T02110022
10211 20083 58009





000
SAUS43 KABR 231759
MTR8D3
METAR K8D3 231756Z AUTO 26011KT 21/02 A2992 RMK AO1 SLP125 T02110022
10211 20083 58009





000
SAUS43 KABR 231659
MTR8D3
METAR K8D3 231656Z AUTO 25004KT 18/03 A2995 RMK AO1 SLP135 T01830033





000
SAUS43 KABR 231659
MTR8D3
METAR K8D3 231656Z AUTO 25004KT 18/03 A2995 RMK AO1 SLP135 T01830033





000
SAUS43 KABR 231601
MTR8D3
METAR K8D3 231556Z AUTO 26010KT 16/05 A2996 RMK AO1 SLP141 T01560050





000
SAUS43 KABR 231501
MTR8D3
METAR K8D3 231456Z AUTO 26010KT 13/05 A2995 RMK AO1 SLP140 T01280050
53007





000
SAUS43 KABR 231401
MTR8D3
METAR K8D3 231356Z AUTO 26010KT 11/04 A2994 RMK AO1 SLP138 T01060044





000
SAUS43 KABR 231301
MTR8D3
METAR K8D3 231256Z AUTO 26007KT 08/04 A2993 RMK AO1 SLP137 T00830044





000
SAUS43 KABR 231201
MTR8D3
METAR K8D3 231156Z AUTO 26008KT 08/05 A2993 RMK AO1 SLP136 70004
T00830050 10117 20083 53002





000
SAUS43 KABR 231101
MTR8D3
METAR K8D3 231056Z AUTO 27010KT 09/06 A2992 RMK AO1 SLP133 T00940056





000
SAUS43 KABR 231001
MTR8D3
METAR K8D3 230956Z AUTO 26010KT 09/06 A2992 RMK AO1 SLP131 T00940056





000
SAUS43 KABR 231001
MTR8D3
METAR K8D3 230956Z AUTO 26010KT 09/06 A2992 RMK AO1 SLP131 T00940056





000
SAUS43 KABR 230901
MTR8D3
METAR K8D3 230856Z AUTO 26011KT 10/07 A2992 RMK AO1 SLP130 T01000067
50001





    US Dept of Commerce
    National Oceanic and Atmospheric Administration
    National Weather Service
    1325 East West Highway
    Silver Spring, MD 20910
    Page Author: NWS Internet Services Team
Disclaimer
Information Quality
Credits
Glossary
Privacy Policy
Freedom of Information Act (FOIA)
About Us
Career Opportunities